createdAt,value
2022-10-04T00:00:12.678Z,7.08
2022-10-04T00:01:13.704Z,7.19
2022-10-04T00:02:12.682Z,7.31
2022-10-04T00:03:12.669Z,7.38
2022-10-04T00:04:12.573Z,7.37
2022-10-04T00:05:12.546Z,7.24
2022-10-04T00:06:12.528Z,7.20
2022-10-04T00:07:12.495Z,7.07
2022-10-04T00:08:12.475Z,7.05
2022-10-04T00:09:12.446Z,7.23
2022-10-04T00:10:12.429Z,7.22
2022-10-04T00:11:12.401Z,7.34
2022-10-04T00:12:12.377Z,7.35
2022-10-04T00:13:12.349Z,7.32
2022-10-04T00:14:12.323Z,7.27
2022-10-04T00:15:12.306Z,7.29
2022-10-04T00:16:12.288Z,7.32
2022-10-04T00:18:12.267Z,7.24
2022-10-04T00:19:12.198Z,7.31
2022-10-04T00:20:12.183Z,7.27
2022-10-04T00:21:12.155Z,7.22
2022-10-04T00:22:12.122Z,7.19
2022-10-04T00:23:12.132Z,7.07
2022-10-04T00:24:12.085Z,7.08
2022-10-04T00:25:12.048Z,7.05
2022-10-04T00:26:12.044Z,7.07
2022-10-04T00:27:12.009Z,7.09
2022-10-04T00:28:12.008Z,7.20
2022-10-04T00:29:11.955Z,7.19
2022-10-04T00:30:11.926Z,7.12
2022-10-04T00:31:11.943Z,7.15
2022-10-04T00:32:11.885Z,7.29
2022-10-04T00:33:11.855Z,7.29
2022-10-04T00:34:11.860Z,7.35
2022-10-04T00:35:11.795Z,7.42
2022-10-04T00:36:11.779Z,7.41
2022-10-04T00:37:11.762Z,7.40
2022-10-04T00:38:11.733Z,7.49
2022-10-04T00:39:11.701Z,7.53
2022-10-04T00:40:11.681Z,7.44
2022-10-04T00:41:11.650Z,7.37
2022-10-04T00:42:11.629Z,7.35
2022-10-04T00:43:11.606Z,7.34
2022-10-04T00:44:11.581Z,7.16
2022-10-04T00:45:11.550Z,7.20
2022-10-04T00:46:11.612Z,7.09
2022-10-04T00:47:11.499Z,7.12
2022-10-04T00:48:11.480Z,7.02
2022-10-04T00:49:11.454Z,7.08
2022-10-04T00:50:11.425Z,6.99
2022-10-04T00:51:11.403Z,6.95
2022-10-04T00:52:11.378Z,6.99
2022-10-04T00:53:11.350Z,6.97
2022-10-04T00:54:20.081Z,6.97
2022-10-04T00:56:04.970Z,6.83
2022-10-04T00:57:05.161Z,6.81
2022-10-04T00:58:04.684Z,6.65
2022-10-04T00:59:04.598Z,6.65
2022-10-04T01:00:04.591Z,6.54
2022-10-04T01:01:04.602Z,6.56
2022-10-04T01:02:04.558Z,6.50
2022-10-04T01:03:04.483Z,6.48
2022-10-04T01:04:04.459Z,6.46
2022-10-04T01:05:04.438Z,6.46
2022-10-04T01:06:04.456Z,6.48
2022-10-04T01:07:04.384Z,6.43
2022-10-04T01:08:04.378Z,6.48
2022-10-04T01:09:04.332Z,6.61
2022-10-04T01:10:04.362Z,6.83
2022-10-04T01:11:04.309Z,6.81
2022-10-04T01:12:04.254Z,6.80
2022-10-04T01:13:04.234Z,6.77
2022-10-04T01:15:57.731Z,6.58
2022-10-04T01:16:57.591Z,6.59
2022-10-04T01:18:00.335Z,6.53
2022-10-04T01:19:57.463Z,6.65
2022-10-04T01:20:57.413Z,6.53
2022-10-04T01:21:57.403Z,6.56
2022-10-04T01:22:57.362Z,6.53
2022-10-04T01:23:57.347Z,6.56
2022-10-04T01:24:57.320Z,6.53
2022-10-04T01:25:57.291Z,6.50
2022-10-04T01:26:57.259Z,6.50
2022-10-04T01:27:57.289Z,6.38
2022-10-04T01:28:57.211Z,6.46
2022-10-04T01:29:57.238Z,6.44
2022-10-04T01:30:57.226Z,6.44
2022-10-04T01:31:57.258Z,6.41
2022-10-04T01:32:57.125Z,6.41
2022-10-04T01:33:57.095Z,6.33
2022-10-04T01:34:57.067Z,6.43
2022-10-04T01:35:57.038Z,6.41
2022-10-04T01:36:57.023Z,6.48
2022-10-04T01:37:56.986Z,6.61
2022-10-04T01:38:56.967Z,6.59
2022-10-04T01:39:56.979Z,6.83
2022-10-04T01:40:56.952Z,6.81
2022-10-04T01:41:56.939Z,6.94
2022-10-04T01:42:56.863Z,6.83
2022-10-04T01:44:56.820Z,6.84
2022-10-04T01:45:56.902Z,6.71
2022-10-04T01:46:56.773Z,6.59
2022-10-04T01:47:56.738Z,6.56
2022-10-04T01:48:56.711Z,6.47
2022-10-04T01:49:56.687Z,6.44
2022-10-04T01:50:56.661Z,6.33
2022-10-04T01:51:56.662Z,6.35
2022-10-04T01:52:56.614Z,6.32
2022-10-04T01:53:56.588Z,6.36
2022-10-04T01:54:56.571Z,6.36
2022-10-04T01:55:56.537Z,6.28
2022-10-04T01:56:56.513Z,6.18
2022-10-04T01:57:56.483Z,6.11
2022-10-04T01:58:56.466Z,6.18
2022-10-04T01:59:56.467Z,6.19
2022-10-04T02:00:56.497Z,6.29
2022-10-04T02:01:56.395Z,6.29
2022-10-04T02:02:56.370Z,6.32
2022-10-04T02:03:56.344Z,6.26
2022-10-04T02:04:56.375Z,6.22
2022-10-04T02:05:56.277Z,6.19
2022-10-04T02:06:56.315Z,6.13
2022-10-04T02:07:56.274Z,6.14
2022-10-04T02:08:56.256Z,6.11
2022-10-04T02:09:56.190Z,5.98
2022-10-04T02:10:56.174Z,6.07
2022-10-04T02:11:56.131Z,6.00
2022-10-04T02:12:56.107Z,6.06
2022-10-04T02:13:56.081Z,5.98
2022-10-04T02:14:56.075Z,6.07
2022-10-04T02:15:56.125Z,6.04
2022-10-04T02:16:56.009Z,5.95
2022-10-04T02:17:55.985Z,5.92
2022-10-04T02:18:55.995Z,6.10
2022-10-04T02:19:55.932Z,6.07
2022-10-04T02:20:55.903Z,6.14
2022-10-04T02:21:55.880Z,6.28
2022-10-04T02:22:55.885Z,6.38
2022-10-04T02:23:55.833Z,6.38
2022-10-04T02:24:55.811Z,6.48
2022-10-04T02:25:55.796Z,6.48
2022-10-04T02:26:55.754Z,6.48
2022-10-04T02:27:55.836Z,6.44
2022-10-04T02:28:55.706Z,6.53
2022-10-04T02:29:55.702Z,6.48
2022-10-04T02:30:55.704Z,6.48
2022-10-04T02:31:55.634Z,6.50
2022-10-04T02:32:55.672Z,6.44
2022-10-04T02:33:55.592Z,6.32
2022-10-04T02:34:55.572Z,6.29
2022-10-04T02:35:55.593Z,6.30
2022-10-04T02:36:55.517Z,6.36
2022-10-04T02:37:55.535Z,6.46
2022-10-04T02:38:55.490Z,6.54
2022-10-04T02:39:55.431Z,6.62
2022-10-04T02:40:55.415Z,6.69
2022-10-04T02:41:55.377Z,6.65
2022-10-04T02:42:55.362Z,6.62
2022-10-04T02:43:55.336Z,6.61
2022-10-04T02:44:55.314Z,6.59
2022-10-04T02:45:55.282Z,6.47
2022-10-04T02:46:55.329Z,6.41
2022-10-04T02:47:55.230Z,6.44
2022-10-04T02:48:55.215Z,6.35
2022-10-04T02:49:55.193Z,6.25
2022-10-04T02:50:55.154Z,6.19
2022-10-04T02:51:55.152Z,6.19
2022-10-04T02:52:55.118Z,6.19
2022-10-04T02:53:55.848Z,6.10
2022-10-04T02:54:55.065Z,6.16
2022-10-04T02:55:55.024Z,6.11
2022-10-04T02:56:55.006Z,6.19
2022-10-04T02:57:54.975Z,6.16
2022-10-04T02:58:54.955Z,6.19
2022-10-04T02:59:54.952Z,6.16
2022-10-04T03:00:54.935Z,6.19
2022-10-04T03:01:54.973Z,6.19
2022-10-04T03:02:54.863Z,6.26
2022-10-04T03:03:54.873Z,6.16
2022-10-04T03:04:54.815Z,6.28
2022-10-04T03:05:54.809Z,6.36
2022-10-04T03:06:54.746Z,6.36
2022-10-04T03:07:54.730Z,6.29
2022-10-04T03:08:54.701Z,6.36
2022-10-04T03:09:54.678Z,6.36
2022-10-04T03:10:54.656Z,6.26
2022-10-04T03:11:54.638Z,6.21
2022-10-04T03:12:54.600Z,6.18
2022-10-04T03:13:54.576Z,6.18
2022-10-04T03:14:54.609Z,6.18
2022-10-04T03:15:54.569Z,6.14
2022-10-04T03:16:54.512Z,6.07
2022-10-04T03:17:54.480Z,6.06
2022-10-04T03:18:54.461Z,6.06
2022-10-04T03:19:54.427Z,5.98
2022-10-04T03:20:54.397Z,6.09
2022-10-04T03:21:54.369Z,6.03
2022-10-04T03:22:54.351Z,6.07
2022-10-04T03:23:54.325Z,6.11
2022-10-04T03:24:54.299Z,6.10
2022-10-04T03:25:54.305Z,6.04
2022-10-04T03:26:54.260Z,6.03
2022-10-04T03:27:54.296Z,6.03
2022-10-04T03:28:54.204Z,6.09
2022-10-04T03:29:58.924Z,6.06
2022-10-04T03:30:54.194Z,6.03
2022-10-04T03:31:54.145Z,6.11
2022-10-04T03:32:54.098Z,6.13
2022-10-04T03:33:54.074Z,6.11
2022-10-04T03:34:54.050Z,6.19
2022-10-04T03:35:54.022Z,6.14
2022-10-04T03:36:53.995Z,6.13
2022-10-04T03:37:53.974Z,6.22
2022-10-04T03:38:53.972Z,6.14
2022-10-04T03:39:53.919Z,6.18
2022-10-04T03:40:53.916Z,6.19
2022-10-04T03:41:53.874Z,6.16
2022-10-04T03:42:53.874Z,6.14
2022-10-04T03:43:53.945Z,6.07
2022-10-04T03:44:53.945Z,6.14
2022-10-04T03:45:53.857Z,6.16
2022-10-04T03:46:53.822Z,6.16
2022-10-04T03:47:53.751Z,6.13
2022-10-04T03:48:53.721Z,6.06
2022-10-04T03:49:53.679Z,6.09
2022-10-04T03:50:53.687Z,6.03
2022-10-04T03:51:53.643Z,6.04
2022-10-04T03:52:53.701Z,6.00
2022-10-04T03:53:53.596Z,5.96
2022-10-04T03:54:53.546Z,5.89
2022-10-04T03:55:53.522Z,6.00
2022-10-04T03:56:53.492Z,5.95
2022-10-04T03:57:53.470Z,6.03
2022-10-04T03:58:53.446Z,6.00
2022-10-04T03:59:53.421Z,5.93
2022-10-04T04:00:53.408Z,6.00
2022-10-04T04:01:53.390Z,5.98
2022-10-04T04:02:53.343Z,6.04
2022-10-04T04:03:53.352Z,6.07
2022-10-04T04:04:53.289Z,6.07
2022-10-04T04:05:53.271Z,6.10
2022-10-04T04:06:53.246Z,6.06
2022-10-04T04:07:53.245Z,6.06
2022-10-04T04:08:53.213Z,5.98
2022-10-04T04:09:53.170Z,5.98
2022-10-04T04:10:53.147Z,5.98
2022-10-04T04:11:53.122Z,5.95
2022-10-04T04:12:53.095Z,6.00
2022-10-04T04:13:53.061Z,5.98
2022-10-04T04:14:53.065Z,6.00
2022-10-04T04:15:53.056Z,6.01
2022-10-04T04:16:52.989Z,5.85
2022-10-04T04:17:53.060Z,5.83
2022-10-04T04:18:53.215Z,5.88
2022-10-04T04:19:52.989Z,6.04
2022-10-04T04:20:52.900Z,6.03
2022-10-04T04:21:52.882Z,6.00
2022-10-04T04:22:52.841Z,6.00
2022-10-04T04:23:52.841Z,5.92
2022-10-04T04:24:52.786Z,5.85
2022-10-04T04:25:52.764Z,5.86
2022-10-04T04:26:52.743Z,5.83
2022-10-04T04:27:52.773Z,5.85
2022-10-04T04:28:52.696Z,5.92
2022-10-04T04:29:52.726Z,5.89
2022-10-04T04:30:52.724Z,5.89
2022-10-04T04:31:52.644Z,6.00
2022-10-04T04:32:52.602Z,5.91
2022-10-04T04:33:52.565Z,5.93
2022-10-04T04:34:52.578Z,5.91
2022-10-04T04:35:52.516Z,5.86
2022-10-04T04:36:52.485Z,5.81
2022-10-04T04:37:52.524Z,5.89
2022-10-04T04:38:52.493Z,5.83
2022-10-04T04:39:52.588Z,5.89
2022-10-04T04:40:52.421Z,5.89
2022-10-04T04:41:52.663Z,5.85
2022-10-04T04:42:52.343Z,6.01
2022-10-04T04:43:52.330Z,6.01
2022-10-04T04:44:52.306Z,6.00
2022-10-04T04:46:08.625Z,6.06
2022-10-04T04:46:52.289Z,6.01
2022-10-04T04:47:52.205Z,6.18
2022-10-04T04:48:52.185Z,6.19
2022-10-04T04:49:52.160Z,6.28
2022-10-04T04:50:52.134Z,6.30
2022-10-04T04:51:52.131Z,6.33
2022-10-04T04:52:52.098Z,6.28
2022-10-04T04:53:52.058Z,6.25
2022-10-04T04:54:52.036Z,6.19
2022-10-04T04:56:05.696Z,6.26
2022-10-04T04:56:51.989Z,6.29
2022-10-04T04:57:51.960Z,6.30
2022-10-04T04:58:51.933Z,6.35
2022-10-04T04:59:51.915Z,6.47
2022-10-04T05:00:51.917Z,6.41
2022-10-04T05:01:51.914Z,6.47
2022-10-04T05:02:56.147Z,6.51
2022-10-04T05:03:51.802Z,6.59
2022-10-04T05:04:51.789Z,6.68
2022-10-04T05:05:51.788Z,6.65
2022-10-04T05:06:51.756Z,6.79
2022-10-04T05:07:51.702Z,6.73
2022-10-04T05:08:51.709Z,6.83
2022-10-04T05:09:51.662Z,6.81
2022-10-04T05:10:51.629Z,6.81
2022-10-04T05:11:51.611Z,6.71
2022-10-04T05:12:51.579Z,6.71
2022-10-04T05:13:51.564Z,6.65
2022-10-04T05:14:51.536Z,6.62
2022-10-04T05:15:51.513Z,6.51
2022-10-04T05:16:51.533Z,6.58
2022-10-04T05:17:51.459Z,6.50
2022-10-04T05:18:51.477Z,6.51
2022-10-04T05:19:51.403Z,6.53
2022-10-04T05:20:51.393Z,6.51
2022-10-04T05:21:51.353Z,6.61
2022-10-04T05:22:51.338Z,6.48
2022-10-04T05:23:51.309Z,6.48
2022-10-04T05:24:51.325Z,6.50
2022-10-04T05:25:51.254Z,6.47
2022-10-04T05:26:51.254Z,6.53
2022-10-04T05:27:51.233Z,6.62
2022-10-04T05:28:51.179Z,6.77
2022-10-04T05:29:51.181Z,6.69
2022-10-04T05:30:51.132Z,6.80
2022-10-04T05:31:51.166Z,6.77
2022-10-04T05:32:51.084Z,6.87
2022-10-04T05:33:51.054Z,6.72
2022-10-04T05:34:51.039Z,6.80
2022-10-04T05:35:51.000Z,6.83
2022-10-04T05:36:50.979Z,6.83
2022-10-04T05:37:50.952Z,6.87
2022-10-04T05:38:50.930Z,6.95
2022-10-04T05:39:50.905Z,6.98
2022-10-04T05:40:50.889Z,6.95
2022-10-04T05:41:50.853Z,6.95
2022-10-04T05:42:50.841Z,6.90
2022-10-04T05:43:50.825Z,6.94
2022-10-04T05:44:50.773Z,6.95
2022-10-04T05:45:50.823Z,7.07
2022-10-04T05:46:50.764Z,7.19
2022-10-04T05:47:50.703Z,7.27
2022-10-04T05:48:50.688Z,7.24
2022-10-04T05:49:50.664Z,7.31
2022-10-04T05:50:50.630Z,7.31
2022-10-04T05:51:50.632Z,7.26
2022-10-04T05:52:50.574Z,7.24
2022-10-04T05:53:50.582Z,7.26
2022-10-04T05:54:50.527Z,7.15
2022-10-04T05:55:50.505Z,7.12
2022-10-04T05:56:50.485Z,7.22
2022-10-04T05:57:50.463Z,7.20
2022-10-04T05:58:50.442Z,7.24
2022-10-04T05:59:50.413Z,7.38
2022-10-04T06:00:50.450Z,7.47
2022-10-04T06:01:50.444Z,7.38
2022-10-04T06:02:50.403Z,7.58
2022-10-04T06:03:50.304Z,7.58
2022-10-04T06:04:50.281Z,7.66
2022-10-04T06:05:50.258Z,7.71
2022-10-04T06:06:50.230Z,7.72
2022-10-04T06:07:50.204Z,7.69
2022-10-04T06:08:50.195Z,7.69
2022-10-04T06:09:50.186Z,7.72
2022-10-04T06:10:50.158Z,7.89
2022-10-04T06:11:50.111Z,7.92
2022-10-04T06:12:50.088Z,8.00
2022-10-04T06:13:50.063Z,8.11
2022-10-04T06:14:50.038Z,8.14
2022-10-04T06:15:50.026Z,8.11
2022-10-04T06:16:50.050Z,8.12
2022-10-04T06:17:49.966Z,8.25
2022-10-04T06:18:49.931Z,8.33
2022-10-04T06:19:49.915Z,8.39
2022-10-04T06:20:49.890Z,8.48
2022-10-04T06:21:49.869Z,8.44
2022-10-04T06:22:49.848Z,8.55
2022-10-04T06:23:49.816Z,8.55
2022-10-04T06:24:49.796Z,8.57
2022-10-04T06:25:49.768Z,8.58
2022-10-04T06:26:49.736Z,8.78
2022-10-04T06:27:49.735Z,8.73
2022-10-04T06:28:49.710Z,8.84
2022-10-04T06:29:49.664Z,8.84
2022-10-04T06:30:49.696Z,8.81
2022-10-04T06:31:49.619Z,8.93
2022-10-04T06:32:49.603Z,8.93
2022-10-04T06:33:49.573Z,9.01
2022-10-04T06:34:49.555Z,9.12
2022-10-04T06:35:49.529Z,9.15
2022-10-04T06:36:49.500Z,9.16
2022-10-04T06:37:49.485Z,9.18
2022-10-04T06:38:49.445Z,9.18
2022-10-04T06:39:49.451Z,9.34
2022-10-04T06:40:49.398Z,9.40
2022-10-04T06:41:49.373Z,9.43
2022-10-04T06:42:49.357Z,9.46
2022-10-04T06:43:49.332Z,9.49
2022-10-04T06:44:49.308Z,9.49
2022-10-04T06:45:49.347Z,9.58
2022-10-04T06:46:49.256Z,9.49
2022-10-04T06:47:49.243Z,9.50
2022-10-04T06:48:49.214Z,9.56
2022-10-04T06:49:49.202Z,9.63
2022-10-04T06:50:49.163Z,9.63
2022-10-04T06:51:49.147Z,9.76
2022-10-04T06:52:49.119Z,9.78
2022-10-04T06:53:49.092Z,9.78
2022-10-04T06:54:49.069Z,9.73
2022-10-04T06:55:49.060Z,9.79
2022-10-04T06:56:49.015Z,9.76
2022-10-04T06:57:49.004Z,9.82
2022-10-04T06:58:49.016Z,9.79
2022-10-04T06:59:48.948Z,9.85
2022-10-04T07:00:48.946Z,9.97
2022-10-04T07:01:48.993Z,10.01
2022-10-04T07:02:48.940Z,9.96
2022-10-04T07:03:51.611Z,9.99
2022-10-04T07:05:07.554Z,10.06
2022-10-04T07:05:48.835Z,10.10
2022-10-04T07:06:48.789Z,10.21
2022-10-04T07:07:48.766Z,10.24
2022-10-04T07:08:48.752Z,10.19
2022-10-04T07:09:48.743Z,10.28
2022-10-04T07:10:48.689Z,10.18
2022-10-04T07:11:48.673Z,10.18
2022-10-04T07:12:48.655Z,10.12
2022-10-04T07:13:48.617Z,10.12
2022-10-04T07:14:48.593Z,10.18
2022-10-04T07:15:48.630Z,10.18
2022-10-04T07:16:48.581Z,10.10
2022-10-04T07:17:48.525Z,10.25
2022-10-04T07:18:48.507Z,10.18
2022-10-04T07:19:48.483Z,10.09
2022-10-04T07:20:48.459Z,10.18
2022-10-04T07:21:48.897Z,10.07
2022-10-04T07:22:48.429Z,10.15
2022-10-04T07:23:48.429Z,10.15
2022-10-04T07:24:48.372Z,10.12
2022-10-04T07:25:48.359Z,10.15
2022-10-04T07:26:48.320Z,10.09
2022-10-04T07:27:48.303Z,10.22
2022-10-04T07:28:48.272Z,10.19
2022-10-04T07:29:48.248Z,10.15
2022-10-04T07:30:48.257Z,10.17
2022-10-04T07:31:48.200Z,10.22
2022-10-04T07:32:48.184Z,10.24
2022-10-04T07:33:48.158Z,10.22
2022-10-04T07:34:48.156Z,10.26
2022-10-04T07:35:48.112Z,10.30
2022-10-04T07:36:48.083Z,10.26
2022-10-04T07:37:48.077Z,10.21
2022-10-04T07:38:48.086Z,10.21
2022-10-04T07:39:48.031Z,10.12
2022-10-04T07:40:47.991Z,10.06
2022-10-04T07:41:47.979Z,9.99
2022-10-04T07:42:47.946Z,10.22
2022-10-04T07:43:47.933Z,10.56
2022-10-04T07:44:47.900Z,10.76
2022-10-04T07:45:47.922Z,10.99
2022-10-04T07:46:47.876Z,11.17
2022-10-04T07:47:47.829Z,11.21
2022-10-04T07:48:47.829Z,11.28
2022-10-04T07:49:47.788Z,11.39
2022-10-04T07:50:47.785Z,11.39
2022-10-04T07:51:47.766Z,11.38
2022-10-04T07:52:47.726Z,11.46
2022-10-04T07:53:47.700Z,11.29
2022-10-04T07:54:47.678Z,11.31
2022-10-04T07:55:47.676Z,11.35
2022-10-04T07:56:47.632Z,11.43
2022-10-04T07:57:47.794Z,11.54
2022-10-04T07:58:47.589Z,11.68
2022-10-04T07:59:47.559Z,11.83
2022-10-04T08:00:47.554Z,11.86
2022-10-04T08:01:47.869Z,11.93
2022-10-04T08:02:47.613Z,11.97
2022-10-04T08:03:47.475Z,12.06
2022-10-04T08:04:47.453Z,12.21
2022-10-04T08:05:47.438Z,12.23
2022-10-04T08:06:47.404Z,12.24
2022-10-04T08:07:47.387Z,12.30
2022-10-04T08:08:47.372Z,12.31
2022-10-04T08:09:47.344Z,12.31
2022-10-04T08:10:47.327Z,12.42
2022-10-04T08:11:47.325Z,12.52
2022-10-04T08:12:47.305Z,12.54
2022-10-04T08:13:47.263Z,12.60
2022-10-04T08:14:47.238Z,12.70
2022-10-04T08:15:47.242Z,12.75
2022-10-04T08:16:47.222Z,12.85
2022-10-04T08:17:47.182Z,13.14
2022-10-04T08:18:47.156Z,13.33
2022-10-04T08:19:47.128Z,13.52
2022-10-04T08:20:47.112Z,13.47
2022-10-04T08:21:47.112Z,13.47
2022-10-04T08:22:47.064Z,13.65
2022-10-04T08:23:47.080Z,13.69
2022-10-04T08:24:51.272Z,13.80
2022-10-04T08:25:47.017Z,13.91
2022-10-04T08:26:46.973Z,14.42
2022-10-04T08:27:46.959Z,14.61
2022-10-04T08:28:46.940Z,14.78
2022-10-04T08:29:46.915Z,15.06
2022-10-04T08:30:46.924Z,15.27
2022-10-04T08:31:46.902Z,15.39
2022-10-04T08:32:46.860Z,15.48
2022-10-04T08:33:46.836Z,15.67
2022-10-04T08:34:46.821Z,15.88
2022-10-04T08:35:46.796Z,16.07
2022-10-04T08:36:46.798Z,16.14
2022-10-04T08:37:46.766Z,16.30
2022-10-04T08:38:46.737Z,16.22
2022-10-04T08:39:46.739Z,16.27
2022-10-04T08:40:46.698Z,16.53
2022-10-04T08:41:46.697Z,16.74
2022-10-04T08:42:46.652Z,16.98
2022-10-04T08:43:46.643Z,17.06
2022-10-04T08:44:46.611Z,17.17
2022-10-04T08:45:46.603Z,17.32
2022-10-04T08:46:47.097Z,17.38
2022-10-04T08:47:46.563Z,17.50
2022-10-04T08:48:46.547Z,17.44
2022-10-04T08:49:46.531Z,17.29
2022-10-04T08:50:46.511Z,17.25
2022-10-04T08:51:46.491Z,17.13
2022-10-04T08:52:46.472Z,17.22
2022-10-04T08:53:46.460Z,17.33
2022-10-04T08:54:46.457Z,17.55
2022-10-04T08:55:46.419Z,17.69
2022-10-04T08:56:46.719Z,17.99
2022-10-04T08:57:46.399Z,17.84
2022-10-04T08:58:46.361Z,17.76
2022-10-04T08:59:46.348Z,17.69
2022-10-04T09:00:46.349Z,17.85
2022-10-04T09:01:46.347Z,18.04
2022-10-04T09:02:46.414Z,18.42
2022-10-04T09:03:46.276Z,18.54
2022-10-04T09:04:46.255Z,18.67
2022-10-04T09:05:46.242Z,18.86
2022-10-04T09:06:46.570Z,18.94
2022-10-04T09:07:46.222Z,18.79
2022-10-04T09:08:46.191Z,18.98
2022-10-04T09:09:46.176Z,19.32
2022-10-04T09:10:46.155Z,19.39
2022-10-04T09:11:46.165Z,19.43
2022-10-04T09:12:46.115Z,19.33
2022-10-04T09:13:46.099Z,19.05
2022-10-04T09:14:46.083Z,18.52
2022-10-04T09:15:46.116Z,18.28
2022-10-04T09:16:46.360Z,17.91
2022-10-04T09:17:46.030Z,17.66
2022-10-04T09:18:46.016Z,17.51
2022-10-04T09:19:45.999Z,17.63
2022-10-04T09:20:45.984Z,17.69
2022-10-04T09:21:45.969Z,17.87
2022-10-04T09:22:45.959Z,18.03
2022-10-04T09:23:45.945Z,18.49
2022-10-04T09:24:45.939Z,18.44
2022-10-04T09:25:45.906Z,18.25
2022-10-04T09:26:46.476Z,18.18
2022-10-04T09:27:59.850Z,18.44
2022-10-04T09:28:45.854Z,18.67
2022-10-04T09:29:45.830Z,18.92
2022-10-04T09:30:45.873Z,19.11
2022-10-04T09:31:45.856Z,19.42
2022-10-04T09:32:45.782Z,19.28
2022-10-04T09:33:45.771Z,19.28
2022-10-04T09:34:45.748Z,19.18
2022-10-04T09:35:45.734Z,19.25
2022-10-04T09:36:46.102Z,19.39
2022-10-04T09:37:45.705Z,19.65
2022-10-04T09:38:45.688Z,19.86
2022-10-04T09:39:45.673Z,19.76
2022-10-04T09:40:47.419Z,19.66
2022-10-04T09:41:45.637Z,19.88
2022-10-04T09:42:45.685Z,19.86
2022-10-04T09:43:45.606Z,19.90
2022-10-04T09:44:45.595Z,20.23
2022-10-04T09:45:45.576Z,20.30
2022-10-04T09:46:46.036Z,20.56
2022-10-04T09:47:45.541Z,20.69
2022-10-04T09:48:45.528Z,20.66
2022-10-04T09:49:45.519Z,20.54
2022-10-04T09:50:45.503Z,20.54
2022-10-04T09:51:45.509Z,20.39
2022-10-04T09:52:45.471Z,20.53
2022-10-04T09:53:45.455Z,20.77
2022-10-04T09:54:45.436Z,20.98
2022-10-04T09:55:45.417Z,21.13
2022-10-04T09:56:45.912Z,20.89
2022-10-04T09:57:45.424Z,20.50
2022-10-04T09:58:45.395Z,20.46
2022-10-04T09:59:45.381Z,20.39
2022-10-04T10:00:45.362Z,20.65
2022-10-04T10:01:45.413Z,20.68
2022-10-04T10:02:45.395Z,20.43
2022-10-04T10:03:45.308Z,20.51
2022-10-04T10:04:45.292Z,20.84
2022-10-04T10:05:45.291Z,20.74
2022-10-04T10:06:45.606Z,20.72
2022-10-04T10:07:45.249Z,20.54
2022-10-04T10:08:45.240Z,20.74
2022-10-04T10:09:45.227Z,20.84
2022-10-04T10:10:45.240Z,20.50
2022-10-04T10:11:45.553Z,20.49
2022-10-04T10:12:45.182Z,20.05
2022-10-04T10:13:45.176Z,19.33
2022-10-04T10:14:45.153Z,19.68
2022-10-04T10:15:45.150Z,19.91
2022-10-04T10:16:45.640Z,20.12
2022-10-04T10:17:45.106Z,20.23
2022-10-04T10:18:45.088Z,20.77
2022-10-04T10:19:45.183Z,21.08
2022-10-04T10:20:45.061Z,21.41
2022-10-04T10:21:45.060Z,21.44
2022-10-04T10:22:45.060Z,21.51
2022-10-04T10:23:45.018Z,21.95
2022-10-04T10:24:45.035Z,22.01
2022-10-04T10:25:44.998Z,22.07
2022-10-04T10:26:45.404Z,21.67
2022-10-04T10:27:45.001Z,21.60
2022-10-04T10:28:44.962Z,21.11
2022-10-04T10:29:44.948Z,20.68
2022-10-04T10:30:44.931Z,20.51
2022-10-04T10:31:47.811Z,20.66
2022-10-04T10:32:44.921Z,20.35
2022-10-04T10:33:44.894Z,20.33
2022-10-04T10:34:44.907Z,20.56
2022-10-04T10:35:44.874Z,20.90
2022-10-04T10:36:45.143Z,20.72
2022-10-04T10:37:44.850Z,20.13
2022-10-04T10:38:44.866Z,20.18
2022-10-04T10:39:44.823Z,20.46
2022-10-04T10:40:44.816Z,20.31
2022-10-04T10:41:44.791Z,20.24
2022-10-04T10:42:44.784Z,20.71
2022-10-04T10:43:44.783Z,21.26
2022-10-04T10:44:44.760Z,21.61
2022-10-04T10:45:44.752Z,21.59
2022-10-04T10:46:45.099Z,21.97
2022-10-04T10:47:44.732Z,22.07
2022-10-04T10:48:44.719Z,22.47
2022-10-04T10:49:44.718Z,22.50
2022-10-04T10:50:44.694Z,22.01
2022-10-04T10:51:44.690Z,21.64
2022-10-04T10:52:44.669Z,21.74
2022-10-04T10:53:44.660Z,21.94
2022-10-04T10:54:44.652Z,21.88
2022-10-04T10:55:44.650Z,21.20
2022-10-04T10:56:44.991Z,20.39
2022-10-04T10:57:44.617Z,20.28
2022-10-04T10:58:44.636Z,20.15
2022-10-04T10:59:44.596Z,20.05
2022-10-04T11:00:44.588Z,20.31
2022-10-04T11:01:44.700Z,19.95
2022-10-04T11:02:50.507Z,20.05
2022-10-04T11:03:44.663Z,20.12
2022-10-04T11:04:44.561Z,20.31
2022-10-04T11:05:44.527Z,20.42
2022-10-04T11:06:44.811Z,20.34
2022-10-04T11:07:44.518Z,20.16
2022-10-04T11:08:44.492Z,20.09
2022-10-04T11:09:44.486Z,20.02
2022-10-04T11:10:44.503Z,19.98
2022-10-04T11:11:44.498Z,19.94
2022-10-04T11:12:44.471Z,19.83
2022-10-04T11:13:44.434Z,19.35
2022-10-04T11:14:44.420Z,19.20
2022-10-04T11:15:44.480Z,19.28
2022-10-04T11:16:44.727Z,19.15
2022-10-04T11:17:44.388Z,19.23
2022-10-04T11:18:44.396Z,19.02
2022-10-04T11:19:44.357Z,18.98
2022-10-04T11:20:44.347Z,18.97
2022-10-04T11:21:44.340Z,19.06
2022-10-04T11:22:44.362Z,18.98
2022-10-04T11:23:44.321Z,18.95
2022-10-04T11:24:44.292Z,19.24
2022-10-04T11:25:44.274Z,19.69
2022-10-04T11:26:44.479Z,20.15
2022-10-04T11:27:48.757Z,20.59
2022-10-04T11:28:44.292Z,20.98
2022-10-04T11:29:44.222Z,20.87
2022-10-04T11:30:44.221Z,21.01
2022-10-04T11:31:44.209Z,21.06
2022-10-04T11:32:44.186Z,21.17
2022-10-04T11:33:44.181Z,21.35
2022-10-04T11:34:44.171Z,21.50
2022-10-04T11:35:44.150Z,21.39
2022-10-04T11:36:44.474Z,21.50
2022-10-04T11:37:44.125Z,21.63
2022-10-04T11:38:44.124Z,21.71
2022-10-04T11:39:44.676Z,21.75
2022-10-04T11:40:44.093Z,21.46
2022-10-04T11:41:44.080Z,21.82
2022-10-04T11:42:44.075Z,22.04
2022-10-04T11:43:44.061Z,22.16
2022-10-04T11:44:44.049Z,22.49
2022-10-04T11:45:44.062Z,22.72
2022-10-04T11:46:44.435Z,22.34
2022-10-04T11:47:44.018Z,21.71
2022-10-04T11:48:44.038Z,21.01
2022-10-04T11:49:44.011Z,20.79
2022-10-04T11:50:44.050Z,20.54
2022-10-04T11:51:43.995Z,20.42
2022-10-04T11:52:43.966Z,20.74
2022-10-04T11:53:43.961Z,20.98
2022-10-04T11:54:43.947Z,21.29
2022-10-04T11:55:43.970Z,21.42
2022-10-04T11:56:44.280Z,21.50
2022-10-04T11:57:43.926Z,21.66
2022-10-04T11:58:43.948Z,21.72
2022-10-04T11:59:43.905Z,22.07
2022-10-04T12:00:43.894Z,22.17
2022-10-04T12:01:43.888Z,22.02
2022-10-04T12:02:43.868Z,22.23
2022-10-04T12:03:43.916Z,22.47
2022-10-04T12:04:43.910Z,22.19
2022-10-04T12:05:43.851Z,22.31
2022-10-04T12:06:44.099Z,22.59
2022-10-04T12:07:43.828Z,22.34
2022-10-04T12:08:43.828Z,22.10
2022-10-04T12:09:43.816Z,21.60
2022-10-04T12:10:43.809Z,21.32
2022-10-04T12:11:43.807Z,21.06
2022-10-04T12:12:43.787Z,21.20
2022-10-04T12:13:43.779Z,21.36
2022-10-04T12:14:43.764Z,21.57
2022-10-04T12:15:43.761Z,21.79
2022-10-04T12:16:44.161Z,21.92
2022-10-04T12:17:43.746Z,21.99
2022-10-04T12:18:43.731Z,22.19
2022-10-04T12:19:43.729Z,22.16
2022-10-04T12:20:43.721Z,22.16
2022-10-04T12:21:43.710Z,22.34
2022-10-04T12:22:43.701Z,22.20
2022-10-04T12:23:43.718Z,22.07
2022-10-04T12:24:43.679Z,22.35
2022-10-04T12:25:43.673Z,22.39
2022-10-04T12:26:43.944Z,22.37
2022-10-04T12:27:43.661Z,22.47
2022-10-04T12:28:43.654Z,22.38
2022-10-04T12:29:43.641Z,22.57
2022-10-04T12:30:43.633Z,22.78
2022-10-04T12:31:43.697Z,22.96
2022-10-04T12:32:43.617Z,23.09
2022-10-04T12:33:43.611Z,23.31
2022-10-04T12:34:43.604Z,23.29
2022-10-04T12:35:43.591Z,23.43
2022-10-04T12:36:43.807Z,23.53
2022-10-04T12:37:43.579Z,23.05
2022-10-04T12:38:43.572Z,22.57
2022-10-04T12:39:43.569Z,22.37
2022-10-04T12:40:43.572Z,22.32
2022-10-04T12:41:43.558Z,22.47
2022-10-04T12:42:43.550Z,22.62
2022-10-04T12:43:43.536Z,23.04
2022-10-04T12:44:43.527Z,23.29
2022-10-04T12:45:43.569Z,23.31
2022-10-04T12:46:43.783Z,23.47
2022-10-04T12:47:43.499Z,23.79
2022-10-04T12:48:43.494Z,23.82
2022-10-04T12:49:43.490Z,23.92
2022-10-04T12:50:43.481Z,24.13
2022-10-04T12:51:43.481Z,24.16
2022-10-04T12:52:43.467Z,24.27
2022-10-04T12:53:43.458Z,24.42
2022-10-04T12:54:43.450Z,24.57
2022-10-04T12:55:43.440Z,24.31
2022-10-04T12:56:43.722Z,24.38
2022-10-04T12:57:43.429Z,24.32
2022-10-04T12:58:43.426Z,24.53
2022-10-04T12:59:43.410Z,24.63
2022-10-04T13:00:43.474Z,24.52
2022-10-04T13:01:43.432Z,24.31
2022-10-04T13:02:43.403Z,24.56
2022-10-04T13:03:43.386Z,24.67
2022-10-04T13:04:43.379Z,24.83
2022-10-04T13:05:43.372Z,24.91
2022-10-04T13:06:43.809Z,24.63
2022-10-04T13:07:43.372Z,24.47
2022-10-04T13:08:43.356Z,24.50
2022-10-04T13:09:55.157Z,23.95
2022-10-04T13:10:43.341Z,23.95
2022-10-04T13:11:43.336Z,24.02